Time;durP1;ratioP1;P1;durP2;ratioP2;P2;SDS_P1;SDS_P2;PMS_P1;PMS_P2;Temp;Humidity;BMP_temperature;BMP_pressure;BME280_temperature;BME280_humidity;BME280_pressure;Samples;Min_cycle;Max_cycle;Signal;HPM_P1;HPM_P2
2023/10/13 00:01:22;;;;;;;;;;;;;;;25.58;32.08;101181.00;5098080;28;1054;-31
2023/10/13 00:03:47;;;;;;;;;;;;;;;25.63;31.83;101181.41;5098166;28;1085;-26
2023/10/13 00:06:13;;;;;;;;;;;;;;;25.59;31.92;101182.72;5093584;28;1221;-28
2023/10/13 00:08:39;;;;;;;;;;;;;;;25.54;31.94;101177.81;5098700;28;1171;-27
2023/10/13 00:11:05;;;;;;;;;;;;;;;25.54;32.06;101167.03;5098223;28;1909;-28
2023/10/13 00:13:42;;;;;;;;;;;;;;;25.61;32.13;101167.25;5086315;28;1170;-28
2023/10/13 00:16:09;;;;;;;;;;;;;;;25.64;31.86;101166.94;5085450;28;992;-29
2023/10/13 00:18:41;;;;;;;;;;;;;;;25.63;31.94;101162.53;5094262;28;881;-27
2023/10/13 00:21:13;;;;;;;;;;;;;;;25.63;31.31;101166.09;5086242;28;1022;-29
2023/10/13 00:23:52;;;;;;;;;;;;;;;25.50;31.84;101161.13;5098370;28;1110;-29
2023/10/13 00:26:18;;;;;;;;;;;;;;;25.40;31.70;101144.25;5087599;28;1065;-29
2023/10/13 00:28:58;;;;;;;;;;;;;;;25.59;31.44;101166.56;5093064;28;1091;-29
2023/10/13 00:31:26;;;;;;;;;;;;;;;25.54;31.71;101167.88;5086325;28;1905;-26
2023/10/13 00:33:55;;;;;;;;;;;;;;;25.27;31.89;101125.84;5078504;28;1198;-31
2023/10/13 00:36:21;;;;;;;;;;;;;;;25.50;31.48;101163.81;5098621;28;1145;-28
2023/10/13 00:38:50;;;;;;;;;;;;;;;25.40;31.66;101158.56;5097458;28;1157;-27
2023/10/13 00:41:16;;;;;;;;;;;;;;;25.47;31.60;101153.38;5088624;28;1000;-26
2023/10/13 00:43:48;;;;;;;;;;;;;;;25.46;31.46;101158.94;5091356;28;1131;-29
2023/10/13 00:46:18;;;;;;;;;;;;;;;25.48;31.73;101149.66;5061424;28;1143;-29
2023/10/13 00:48:54;;;;;;;;;;;;;;;25.56;31.50;101154.22;5068459;28;1447;-27
2023/10/13 00:51:46;;;;;;;;;;;;;;;25.54;31.57;101148.19;5058363;28;1914;-27
2023/10/13 00:54:12;;;;;;;;;;;;;;;25.50;31.45;101147.66;5078284;28;1489;-30
2023/10/13 00:56:40;;;;;;;;;;;;;;;25.43;31.66;101147.47;5071994;28;1127;-27
2023/10/13 00:59:09;;;;;;;;;;;;;;;25.60;31.01;101152.06;5086889;28;1042;-28
2023/10/13 01:01:36;;;;;;;;;;;;;;;25.53;31.45;101144.66;5077721;28;1047;-27
2023/10/13 01:04:03;;;;;;;;;;;;;;;25.54;31.61;101154.41;5076768;28;1146;-28
2023/10/13 01:06:29;;;;;;;;;;;;;;;25.51;31.50;101140.41;5090573;28;856;-29
2023/10/13 01:09:12;;;;;;;;;;;;;;;25.57;31.51;101134.41;5078704;28;1326;-29
2023/10/13 01:11:42;;;;;;;;;;;;;;;25.49;31.33;101135.19;5093788;28;1217;-27
2023/10/13 01:14:08;;;;;;;;;;;;;;;25.42;31.13;101109.94;5083717;28;1047;-27
2023/10/13 01:16:35;;;;;;;;;;;;;;;25.48;31.47;101124.56;5097245;28;1089;-27
2023/10/13 01:19:04;;;;;;;;;;;;;;;25.57;31.50;101126.31;5074624;28;1199;-27
2023/10/13 01:21:32;;;;;;;;;;;;;;;25.40;31.86;101122.72;5071243;28;1068;-28
2023/10/13 01:23:58;;;;;;;;;;;;;;;25.43;31.53;101133.16;5088214;28;1007;-33
2023/10/13 01:26:26;;;;;;;;;;;;;;;25.54;31.53;101132.03;5061330;28;1071;-27
2023/10/13 01:28:56;;;;;;;;;;;;;;;25.52;31.40;101126.81;5097034;28;1063;-28
2023/10/13 01:31:29;;;;;;;;;;;;;;;25.49;31.78;101129.81;5057107;28;1886;-27
2023/10/13 01:33:57;;;;;;;;;;;;;;;25.50;32.00;101126.13;5076893;28;1261;-28
2023/10/13 01:36:23;;;;;;;;;;;;;;;25.46;31.72;101124.75;5071400;28;1266;-26
2023/10/13 01:38:48;;;;;;;;;;;;;;;25.50;31.72;101131.50;5072275;28;1140;-27
2023/10/13 01:41:14;;;;;;;;;;;;;;;25.39;31.43;101124.53;5089068;28;1086;-28
2023/10/13 01:43:40;;;;;;;;;;;;;;;25.35;31.76;101125.88;5078574;28;1153;-31
2023/10/13 01:46:05;;;;;;;;;;;;;;;25.42;31.62;101129.59;5096625;28;1034;-26
2023/10/13 01:48:38;;;;;;;;;;;;;;;25.42;31.44;101128.78;5077021;28;1206;-27
2023/10/13 01:51:05;;;;;;;;;;;;;;;25.30;31.79;101126.38;5050803;28;1910;-28
2023/10/13 01:53:31;;;;;;;;;;;;;;;25.39;31.61;101121.03;5094435;28;997;-26
2023/10/13 01:56:05;;;;;;;;;;;;;;;25.47;31.43;101112.97;5072030;28;1213;-28
2023/10/13 01:58:30;;;;;;;;;;;;;;;25.37;31.49;101123.88;5070581;28;1238;-26
2023/10/13 02:00:56;;;;;;;;;;;;;;;25.42;31.19;101126.09;5073451;28;1343;-28
2023/10/13 02:03:22;;;;;;;;;;;;;;;25.37;31.59;101129.28;5070333;28;1221;-27
2023/10/13 02:05:48;;;;;;;;;;;;;;;25.38;31.25;101125.56;5069143;28;1122;-30
2023/10/13 02:08:23;;;;;;;;;;;;;;;25.37;31.17;101123.88;5076108;28;1309;-28
2023/10/13 02:10:52;;;;;;;;;;;;;;;25.30;31.25;101126.38;5079434;28;1902;-29
2023/10/13 02:13:18;;;;;;;;;;;;;;;25.26;31.26;101127.69;5086396;28;1062;-29
2023/10/13 02:15:44;;;;;;;;;;;;;;;25.20;31.43;101128.34;5071840;28;1404;-27
2023/10/13 02:18:10;;;;;;;;;;;;;;;25.26;31.26;101126.84;5078913;28;1047;-27
2023/10/13 02:20:42;;;;;;;;;;;;;;;25.42;31.18;101129.59;5079317;28;1070;-28
2023/10/13 02:23:10;;;;;;;;;;;;;;;25.40;31.49;101128.94;5067750;28;1198;-29
2023/10/13 02:25:42;;;;;;;;;;;;;;;25.31;31.55;101129.91;5076052;28;1176;-31
2023/10/13 02:28:13;;;;;;;;;;;;;;;25.35;31.39;101131.28;5078000;28;1229;-27
2023/10/13 02:30:44;;;;;;;;;;;;;;;25.46;31.37;101135.50;5079434;28;1965;-26
2023/10/13 02:33:11;;;;;;;;;;;;;;;25.45;31.30;101131.16;5044662;28;1055;-26
2023/10/13 02:35:41;;;;;;;;;;;;;;;25.39;31.52;101127.25;5065617;28;1222;-27
2023/10/13 02:38:12;;;;;;;;;;;;;;;25.37;31.26;101123.88;5080578;28;1151;-30
2023/10/13 02:40:38;;;;;;;;;;;;;;;25.39;31.37;101121.84;5072881;28;1136;-31
2023/10/13 02:43:07;;;;;;;;;;;;;;;25.45;31.19;101123.06;5074271;28;1315;-27
2023/10/13 02:45:35;;;;;;;;;;;;;;;25.39;31.19;101121.84;5084889;28;1658;-27
2023/10/13 02:48:12;;;;;;;;;;;;;;;25.44;31.17;101122.22;5082879;28;1051;-29
2023/10/13 02:50:42;;;;;;;;;;;;;;;25.47;31.16;101120.22;5077903;28;1914;-30
2023/10/13 02:53:12;;;;;;;;;;;;;;;25.48;31.12;101129.97;5080852;28;1043;-28
2023/10/13 02:56:06;;;;;;;;;;;;;;;25.35;31.23;101130.41;5075270;28;1290;-27
2023/10/13 02:58:38;;;;;;;;;;;;;;;24.16;33.24;101115.44;5081013;28;955;-30
2023/10/13 03:01:18;;;;;;;;;;;;;;;23.00;35.57;101113.09;5070523;28;1222;-32
2023/10/13 03:03:58;;;;;;;;;;;;;;;22.63;35.93;101115.59;5082160;28;1227;-30
2023/10/13 03:06:32;;;;;;;;;;;;;;;22.70;35.57;101110.50;5071595;28;1353;-30
2023/10/13 03:09:14;;;;;;;;;;;;;;;22.14;36.55;101119.13;5073142;28;1148;-29
2023/10/13 03:11:49;;;;;;;;;;;;;;;21.33;38.26;101110.19;5095722;28;1984;-28
2023/10/13 03:14:25;;;;;;;;;;;;;;;21.13;38.73;101111.91;5096281;28;1047;-27
2023/10/13 03:16:54;;;;;;;;;;;;;;;21.29;38.27;101111.41;5078425;28;1302;-29
2023/10/13 03:19:20;;;;;;;;;;;;;;;21.05;38.93;101112.59;5067037;28;993;-30
2023/10/13 03:21:54;;;;;;;;;;;;;;;20.83;39.65;101113.56;5087637;28;1352;-28
2023/10/13 03:24:22;;;;;;;;;;;;;;;20.88;39.25;101111.34;5070993;28;1076;-29
2023/10/13 03:26:52;;;;;;;;;;;;;;;20.59;40.41;101106.63;5081855;28;1113;-28
2023/10/13 03:29:21;;;;;;;;;;;;;;;21.98;37.46;101111.63;5070247;28;1906;-30
2023/10/13 03:31:55;;;;;;;;;;;;;;;22.17;36.47;101085.81;5081903;28;1214;-27
2023/10/13 03:34:20;;;;;;;;;;;;;;;22.27;36.93;101108.09;5078134;28;1277;-26
2023/10/13 03:36:58;;;;;;;;;;;;;;;23.03;35.15;101104.75;5099821;28;1000;-28
2023/10/13 03:39:30;;;;;;;;;;;;;;;23.07;35.18;101099.97;5065866;28;1247;-30
2023/10/13 03:41:59;;;;;;;;;;;;;;;21.81;37.15;101080.16;5069253;28;1170;-29
2023/10/13 03:44:30;;;;;;;;;;;;;;;21.26;38.38;101098.31;5097857;28;955;-28
2023/10/13 03:46:55;;;;;;;;;;;;;;;21.16;38.66;101107.16;5072983;28;1001;-28
2023/10/13 03:49:21;;;;;;;;;;;;;;;20.55;39.96;101100.72;5082093;28;1898;-29
2023/10/13 03:51:50;;;;;;;;;;;;;;;20.20;40.74;101097.38;5083514;28;1034;-28
2023/10/13 03:54:16;;;;;;;;;;;;;;;21.35;38.82;101104.69;5082342;28;1131;-29
2023/10/13 03:56:44;;;;;;;;;;;;;;;24.36;33.89;101099.19;5088892;28;1114;-27
2023/10/13 03:59:10;;;;;;;;;;;;;;;25.32;31.25;101099.28;5078801;28;1055;-27
2023/10/13 04:04:34;;;;;;;;;;;;;;;23.75;34.56;101102.47;5098233;28;1090;-28
2023/10/13 04:17:15;;;;;;;;;;;;;;;29.14;26.47;101113.47;5098173;28;1010;-28
2023/10/13 04:23:03;;;;;;;;;;;;;;;25.18;32.23;101112.34;5098274;28;1067;-28
2023/10/13 04:28:15;;;;;;;;;;;;;;;25.02;32.29;101118.50;5094674;28;1366;-28
2023/10/13 04:33:43;;;;;;;;;;;;;;;25.22;31.73;101136.25;5070067;28;1146;-26
2023/10/13 04:36:57;;;;;;;;;;;;;;;25.60;31.84;101146.69;5084311;28;1118;-26
2023/10/13 04:41:57;;;;;;;;;;;;;;;25.84;31.71;101137.84;5082453;28;1103;-28
2023/10/13 04:47:09;;;;;;;;;;;;;;;27.41;29.34;101143.31;5084245;28;1301;-28
2023/10/13 04:54:34;;;;;;;;;;;;;;;27.79;29.90;101145.38;5087506;28;1099;-29
2023/10/13 04:57:23;;;;;;;;;;;;;;;26.70;31.41;101149.41;5096513;28;1172;-25
2023/10/13 06:29:33;;;;;;;;;;;;;;;27.00;33.59;101209.09;5086957;28;1913;-28
2023/10/13 06:32:01;;;;;;;;;;;;;;;27.17;33.28;101218.03;5091174;28;1066;-27
2023/10/13 06:34:44;;;;;;;;;;;;;;;27.08;33.37;101227.16;5086800;28;1233;-30
2023/10/13 06:37:49;;;;;;;;;;;;;;;26.93;33.39;101187.31;5095948;28;1056;-29
2023/10/13 06:42:53;;;;;;;;;;;;;;;27.17;33.45;101209.94;5095737;28;1102;-26
2023/10/13 06:45:19;;;;;;;;;;;;;;;27.23;33.36;101216.50;5080056;28;1031;-28
2023/10/13 06:47:44;;;;;;;;;;;;;;;27.28;33.15;101206.00;5095305;28;1016;-33
2023/10/13 06:50:19;;;;;;;;;;;;;;;27.13;33.33;101209.44;5062692;28;1989;-33
2023/10/13 06:52:47;;;;;;;;;;;;;;;27.00;33.28;101206.38;5077019;28;1166;-31
2023/10/13 06:55:28;;;;;;;;;;;;;;;27.16;33.20;101210.94;5087699;28;1063;-31
2023/10/13 06:57:59;;;;;;;;;;;;;;;27.35;33.30;101222.38;5062391;28;884;-27
2023/10/13 07:00:29;;;;;;;;;;;;;;;27.38;32.64;101192.31;5076006;28;1182;-28
2023/10/13 07:03:05;;;;;;;;;;;;;;;27.49;32.79;101216.25;5080974;28;1059;-29
2023/10/13 07:05:41;;;;;;;;;;;;;;;27.51;32.82;101214.22;5086106;28;1137;-31
2023/10/13 07:08:07;;;;;;;;;;;;;;;27.38;32.65;101214.78;5066455;28;1420;-30
2023/10/13 07:10:44;;;;;;;;;;;;;;;27.46;33.11;101216.59;5079442;28;1918;-31
2023/10/13 07:13:10;;;;;;;;;;;;;;;27.42;32.74;101223.38;5079469;28;1167;-28
2023/10/13 07:15:44;;;;;;;;;;;;;;;27.43;33.07;101219.66;5079004;28;1031;-29
2023/10/13 07:18:22;;;;;;;;;;;;;;;27.44;33.33;101221.34;5077091;28;1244;-31
2023/10/13 07:20:48;;;;;;;;;;;;;;;27.21;33.45;101219.34;5077342;28;992;-29
2023/10/13 07:23:17;;;;;;;;;;;;;;;27.24;33.76;101210.09;5091463;28;1051;-32
2023/10/13 07:25:44;;;;;;;;;;;;;;;27.25;33.08;101214.47;5079768;28;1098;-29
2023/10/13 07:28:09;;;;;;;;;;;;;;;27.19;33.49;101213.31;5060744;28;1179;-32
2023/10/13 07:30:49;;;;;;;;;;;;;;;27.29;33.35;101207.72;5084920;28;1972;-28
2023/10/13 07:33:19;;;;;;;;;;;;;;;27.37;33.32;101214.94;5084036;28;1097;-33
2023/10/13 07:35:48;;;;;;;;;;;;;;;27.51;33.50;101216.06;5079111;28;1074;-29
2023/10/13 07:38:14;;;;;;;;;;;;;;;27.77;33.03;101214.13;5078753;28;1071;-27
2023/10/13 07:40:39;;;;;;;;;;;;;;;27.82;32.67;101207.19;5086490;28;1162;-28
2023/10/13 07:43:08;;;;;;;;;;;;;;;27.77;32.87;101201.47;5087489;28;1011;-30
2023/10/13 07:45:38;;;;;;;;;;;;;;;27.61;33.11;101205.91;5067714;28;1304;-27
2023/10/13 07:48:12;;;;;;;;;;;;;;;27.64;33.07;101202.00;5078824;28;1094;-30
2023/10/13 07:50:41;;;;;;;;;;;;;;;27.40;33.26;101201.09;5078843;28;1914;-31
2023/10/13 07:53:40;;;;;;;;;;;;;;;27.50;33.08;101201.72;5078761;28;1039;-31
2023/10/13 07:56:03;;;;;;;;;;;;;;;27.57;32.94;101192.91;5066529;28;1542;-28
2023/10/13 07:58:31;;;;;;;;;;;;;;;27.62;32.93;101198.63;5080496;28;940;-33
2023/10/13 08:03:44;;;;;;;;;;;;;;;27.45;32.82;101189.75;5078316;28;1040;-35
2023/10/13 08:08:38;;;;;;;;;;;;;;;27.56;32.85;101185.84;5065047;28;1008;-29
2023/10/13 08:11:25;;;;;;;;;;;;;;;27.66;32.68;101194.56;5082994;28;1906;-34
2023/10/13 08:13:54;;;;;;;;;;;;;;;27.60;32.77;101193.41;5072016;28;1104;-28
2023/10/13 08:16:22;;;;;;;;;;;;;;;27.66;32.43;101191.84;5064857;28;1102;-30
2023/10/13 08:18:51;;;;;;;;;;;;;;;27.57;33.30;101185.66;5071851;28;1130;-29
2023/10/13 08:21:17;;;;;;;;;;;;;;;27.64;32.50;101188.50;5077980;28;995;-32
2023/10/13 08:32:13;;;;;;;;;;;;;;;27.67;32.28;101181.88;5060995;28;1977;-29
2023/10/13 08:45:20;;;;;;;;;;;;;;;27.74;31.82;101189.13;5092671;28;1138;-30
2023/10/13 08:48:07;;;;;;;;;;;;;;;28.01;31.51;101180.72;5091401;28;1122;-29
2023/10/13 08:53:27;;;;;;;;;;;;;;;28.36;30.03;101189.28;5077743;28;1079;-29
2023/10/13 08:59:05;;;;;;;;;;;;;;;27.93;29.47;101181.63;5070543;28;1168;-31
2023/10/13 09:06:47;;;;;;;;;;;;;;;28.24;27.98;101174.50;5076079;28;1094;-29
2023/10/13 09:09:26;;;;;;;;;;;;;;;28.69;26.90;101169.25;5081733;28;1385;-28
2023/10/13 09:12:10;;;;;;;;;;;;;;;28.71;26.92;101166.34;5077040;28;1901;-28
2023/10/13 09:14:44;;;;;;;;;;;;;;;28.62;26.65;101168.28;5076836;28;1047;-29
2023/10/13 09:17:11;;;;;;;;;;;;;;;28.63;26.91;101172.66;5076227;28;1080;-31
2023/10/13 09:19:48;;;;;;;;;;;;;;;28.67;27.31;101175.84;5076747;28;1155;-30
2023/10/13 09:22:42;;;;;;;;;;;;;;;28.63;26.87;101171.84;5076189;28;1000;-29
2023/10/13 09:25:13;;;;;;;;;;;;;;;28.49;27.61;101174.34;5076231;28;1039;-29
2023/10/13 09:27:39;;;;;;;;;;;;;;;28.56;27.34;101164.44;5075305;28;1035;-29
2023/10/13 09:30:23;;;;;;;;;;;;;;;28.67;27.44;101162.31;5076576;28;2089;-32
2023/10/13 09:33:02;;;;;;;;;;;;;;;28.65;27.21;101148.13;5076749;28;1031;-30
2023/10/13 09:35:28;;;;;;;;;;;;;;;28.65;27.49;101165.22;5076386;28;1118;-29
2023/10/13 09:37:56;;;;;;;;;;;;;;;28.70;27.60;101161.94;5076312;28;1039;-29
2023/10/13 09:40:25;;;;;;;;;;;;;;;28.88;27.45;101155.38;5076184;28;1094;-28
2023/10/13 09:42:58;;;;;;;;;;;;;;;28.92;27.32;101152.09;5075965;28;999;-31
2023/10/13 09:45:27;;;;;;;;;;;;;;;28.77;27.56;101149.38;5063872;28;1202;-30
2023/10/13 09:47:53;;;;;;;;;;;;;;;28.77;27.23;101151.22;5059439;28;1195;-31
2023/10/13 09:50:24;;;;;;;;;;;;;;;28.66;27.80;101144.41;5076531;28;1975;-29
2023/10/13 09:52:52;;;;;;;;;;;;;;;28.86;27.45;101142.00;5076808;28;1014;-30
2023/10/13 09:55:22;;;;;;;;;;;;;;;28.24;27.08;101142.84;5068308;28;1437;-27
2023/10/13 09:57:57;;;;;;;;;;;;;;;28.63;27.23;101140.19;5058455;28;1107;-28
2023/10/13 10:02:58;;;;;;;;;;;;;;;28.95;28.70;101127.34;5049532;28;1130;-28
2023/10/13 10:05:25;;;;;;;;;;;;;;;28.90;27.61;101120.78;5063544;28;1165;-28
2023/10/13 10:07:58;;;;;;;;;;;;;;;28.75;27.46;101127.06;5076075;28;1146;-29
2023/10/13 10:10:27;;;;;;;;;;;;;;;28.68;27.49;101120.69;5076332;28;1982;-28
2023/10/13 10:12:55;;;;;;;;;;;;;;;28.63;27.63;101115.00;5075931;28;1031;-31
2023/10/13 10:15:43;;;;;;;;;;;;;;;28.45;27.84;101116.16;5058048;28;1110;-30
2023/10/13 10:18:22;;;;;;;;;;;;;;;28.67;27.62;101119.00;5061774;28;1174;-30
2023/10/13 10:20:51;;;;;;;;;;;;;;;28.68;27.50;101112.56;5074105;28;1101;-28
2023/10/13 10:23:27;;;;;;;;;;;;;;;28.90;27.62;101112.69;5075956;28;868;-30
2023/10/13 10:25:59;;;;;;;;;;;;;;;29.00;27.27;101115.97;5076059;28;1037;-30
2023/10/13 10:28:25;;;;;;;;;;;;;;;28.98;27.35;101114.50;5069929;28;1205;-29
2023/10/13 10:30:51;;;;;;;;;;;;;;;29.13;27.34;101115.31;5051040;28;1914;-28
2023/10/13 10:33:18;;;;;;;;;;;;;;;29.15;27.33;101115.97;5056967;28;1024;-27
2023/10/13 10:35:44;;;;;;;;;;;;;;;28.99;27.35;101094.50;5075939;28;988;-30
2023/10/13 10:40:58;;;;;;;;;;;;;;;29.18;27.67;101114.75;5079315;28;1078;-29
2023/10/13 10:43:47;;;;;;;;;;;;;;;29.26;27.84;101111.13;5079112;28;1043;-30
2023/10/13 10:46:25;;;;;;;;;;;;;;;29.19;27.45;101105.59;5080039;28;1143;-31
2023/10/13 10:49:00;;;;;;;;;;;;;;;29.23;27.57;101108.78;5067005;28;1024;-29
2023/10/13 10:51:31;;;;;;;;;;;;;;;29.20;27.62;101107.28;5080262;28;1910;-29
2023/10/13 10:53:57;;;;;;;;;;;;;;;29.23;27.60;101097.94;5079317;28;1016;-33
2023/10/13 10:56:36;;;;;;;;;;;;;;;29.19;27.56;101103.75;5062232;28;1059;-29
2023/10/13 10:59:04;;;;;;;;;;;;;;;29.18;27.55;101102.06;5070679;28;1067;-30
2023/10/13 11:01:43;;;;;;;;;;;;;;;29.54;27.16;101097.69;5074915;28;1114;-31
2023/10/13 11:04:18;;;;;;;;;;;;;;;29.54;27.29;101102.28;5058295;28;1520;-32
2023/10/13 11:06:47;;;;;;;;;;;;;;;29.40;27.18;101102.13;5075039;28;1024;-28
2023/10/13 11:09:31;;;;;;;;;;;;;;;29.30;27.50;101090.72;5079132;28;1033;-28
2023/10/13 11:11:57;;;;;;;;;;;;;;;29.20;27.67;101097.28;5091951;28;1965;-30
2023/10/13 11:14:24;;;;;;;;;;;;;;;29.20;27.61;101097.28;5064457;28;1108;-25
2023/10/13 11:16:59;;;;;;;;;;;;;;;29.28;27.48;101090.91;5048266;28;1073;-29
2023/10/13 11:19:34;;;;;;;;;;;;;;;29.40;27.50;101091.28;5069018;28;1152;-29
2023/10/13 11:22:10;;;;;;;;;;;;;;;29.42;27.31;101089.22;5073155;28;1016;-32
2023/10/13 11:24:42;;;;;;;;;;;;;;;29.45;27.30;101086.13;5065616;28;1000;-32
2023/10/13 11:27:16;;;;;;;;;;;;;;;29.46;27.03;101082.38;5078194;28;1063;-29
2023/10/13 11:29:41;;;;;;;;;;;;;;;29.41;27.23;101079.38;5078648;28;1905;-30
2023/10/13 11:32:08;;;;;;;;;;;;;;;29.38;27.00;101089.78;5077198;28;1083;-29
2023/10/13 11:34:40;;;;;;;;;;;;;;;29.30;27.17;101086.16;5067234;28;1062;-30
2023/10/13 11:37:28;;;;;;;;;;;;;;;29.27;27.16;101093.81;5078265;28;1027;-29
2023/10/13 11:39:51;;;;;;;;;;;;;;;29.26;27.13;101095.69;5077565;28;1465;-30
2023/10/13 11:42:17;;;;;;;;;;;;;;;29.11;27.33;101093.00;5078175;28;1103;-29
2023/10/13 11:44:43;;;;;;;;;;;;;;;29.21;27.12;101092.72;5078342;28;1115;-32
2023/10/13 11:47:58;;;;;;;;;;;;;;;29.28;27.01;101093.63;5077487;28;1118;-32
2023/10/13 11:49:59;;;;;;;;;;;;;;;28.24;27.56;100983.25;5068336;28;1975;-30
2023/10/13 11:52:27;;;;;;;;;;;;;;;28.90;27.70;101093.72;5077576;28;1225;-31
2023/10/13 11:54:53;;;;;;;;;;;;;;;29.20;26.98;101093.72;5077253;28;1066;-28
2023/10/13 11:57:19;;;;;;;;;;;;;;;29.08;27.48;101096.94;5077708;28;1076;-30
2023/10/13 11:59:53;;;;;;;;;;;;;;;29.11;27.50;101097.59;5078196;28;945;-28
2023/10/13 12:04:57;;;;;;;;;;;;;;;28.82;27.93;101095.50;5078003;28;1138;-30
2023/10/13 12:07:45;;;;;;;;;;;;;;;28.53;28.33;101089.03;5068665;28;1012;-30
2023/10/13 12:10:33;;;;;;;;;;;;;;;28.57;28.25;101086.81;5041366;28;1910;-30
2023/10/13 12:13:05;;;;;;;;;;;;;;;28.54;28.40;101095.28;5057646;28;1016;-28
2023/10/13 12:15:36;;;;;;;;;;;;;;;28.47;28.53;101100.59;5057419;28;1048;-26
2023/10/13 12:18:03;;;;;;;;;;;;;;;28.51;28.39;101099.19;5057366;28;1108;-28
2023/10/13 12:20:35;;;;;;;;;;;;;;;28.53;28.22;101105.28;5047412;28;1159;-32
2023/10/13 12:23:15;;;;;;;;;;;;;;;28.55;28.24;101105.09;5057062;28;1004;-32
2023/10/13 12:28:26;;;;;;;;;;;;;;;28.28;28.64;101097.34;5057532;28;1100;-29
2023/10/13 12:30:53;;;;;;;;;;;;;;;28.34;28.59;101090.41;5057543;28;1985;-31
2023/10/13 12:33:25;;;;;;;;;;;;;;;28.38;28.41;101102.53;5057048;28;1004;-32
2023/10/13 12:52:15;;;;;;;;;;;;;;;27.46;29.38;101094.19;5038690;28;1270;-27
2023/10/13 12:57:25;;;;;;;;;;;;;;;27.78;29.51;101095.03;5046636;28;1035;-29
2023/10/13 12:59:53;;;;;;;;;;;;;;;27.57;29.82;101096.50;5053771;28;1087;-28
2023/10/13 13:02:24;;;;;;;;;;;;;;;27.72;29.63;101093.03;5045345;28;1015;-31
2023/10/13 13:07:52;;;;;;;;;;;;;;;27.60;30.00;101095.28;5034640;28;1246;-28
2023/10/13 13:10:17;;;;;;;;;;;;;;;27.72;30.23;101091.19;5076252;28;1918;-27
2023/10/13 13:12:43;;;;;;;;;;;;;;;27.86;29.73;101084.16;5075901;28;1033;-28
2023/10/13 13:15:09;;;;;;;;;;;;;;;28.01;29.68;101087.94;5076657;28;1190;-29
2023/10/13 13:17:38;;;;;;;;;;;;;;;27.95;29.87;101089.50;5075436;28;1039;-27
2023/10/13 13:20:44;;;;;;;;;;;;;;;27.85;30.15;101096.00;5089330;28;1190;-30
2023/10/13 13:23:02;;;;;;;;;;;;;;;27.81;30.27;101096.53;5062920;28;1277;-27
2023/10/13 13:25:30;;;;;;;;;;;;;;;28.10;30.27;101092.25;5074307;28;1058;-27
2023/10/13 13:27:56;;;;;;;;;;;;;;;28.09;30.22;101098.69;5076008;28;1078;-26
2023/10/13 13:30:22;;;;;;;;;;;;;;;28.24;30.12;101101.47;5064677;28;1917;-29
2023/10/13 13:32:48;;;;;;;;;;;;;;;28.10;30.39;101103.06;5076211;28;1178;-29
2023/10/13 13:35:13;;;;;;;;;;;;;;;28.04;30.31;101099.25;5075073;28;1078;-27
2023/10/13 13:37:39;;;;;;;;;;;;;;;28.16;30.19;101104.22;5065049;28;1000;-29
2023/10/13 13:40:15;;;;;;;;;;;;;;;28.03;30.62;101092.13;5075388;28;1178;-27
2023/10/13 13:42:42;;;;;;;;;;;;;;;28.02;30.46;101092.31;5076162;28;1051;-27
2023/10/13 13:48:15;;;;;;;;;;;;;;;28.04;30.70;101098.41;5061776;28;1170;-31
2023/10/13 13:50:41;;;;;;;;;;;;;;;28.01;30.49;101096.06;5063358;28;1918;-29
2023/10/13 13:53:09;;;;;;;;;;;;;;;27.96;30.85;101105.53;5075272;28;992;-26
2023/10/13 13:55:35;;;;;;;;;;;;;;;28.04;30.47;101101.97;5075876;28;1067;-26
2023/10/13 13:58:00;;;;;;;;;;;;;;;28.08;30.49;101099.72;5075490;28;999;-28
2023/10/13 14:00:40;;;;;;;;;;;;;;;28.03;30.92;101105.66;5075506;28;962;-31
2023/10/13 14:03:12;;;;;;;;;;;;;;;27.82;31.27;101095.50;5076052;28;1099;-31
2023/10/13 14:05:44;;;;;;;;;;;;;;;27.87;31.13;101093.13;5075824;28;1122;-29
2023/10/13 14:08:15;;;;;;;;;;;;;;;27.99;31.07;101099.78;5074939;28;1103;-29
2023/10/13 14:13:48;;;;;;;;;;;;;;;28.03;31.17;101100.25;5063196;28;1084;-28
2023/10/13 14:16:20;;;;;;;;;;;;;;;27.96;31.21;101104.72;5075214;28;1407;-28
2023/10/13 14:18:46;;;;;;;;;;;;;;;27.75;31.33;101062.94;5075688;28;1120;-28
2023/10/13 14:21:16;;;;;;;;;;;;;;;27.97;31.57;101106.41;5075661;28;1090;-29
2023/10/13 14:23:54;;;;;;;;;;;;;;;27.89;31.78;101095.63;5074770;28;1034;-27
2023/10/13 14:26:21;;;;;;;;;;;;;;;27.88;31.65;101094.78;5058457;28;1098;-30
2023/10/13 14:28:51;;;;;;;;;;;;;;;27.77;32.10;101098.75;5068989;28;1149;-31
2023/10/13 14:31:18;;;;;;;;;;;;;;;27.75;31.91;101103.50;5064863;28;1979;-29
2023/10/13 14:33:46;;;;;;;;;;;;;;;27.70;32.12;101103.19;5066990;28;1161;-31
2023/10/13 14:36:11;;;;;;;;;;;;;;;27.68;32.12;101106.06;5064193;28;1371;-28
2023/10/13 14:38:37;;;;;;;;;;;;;;;27.74;32.23;101099.94;5073054;28;1083;-33
2023/10/13 14:41:02;;;;;;;;;;;;;;;28.07;31.76;101100.75;5074813;28;1043;-28
2023/10/13 14:43:28;;;;;;;;;;;;;;;28.06;32.07;101099.06;5075315;28;1060;-30
2023/10/13 14:45:54;;;;;;;;;;;;;;;28.09;32.27;101101.41;5057212;28;1075;-30
2023/10/13 14:48:19;;;;;;;;;;;;;;;27.90;32.66;101105.41;5066705;28;1005;-28
2023/10/13 14:50:45;;;;;;;;;;;;;;;27.61;33.11;101122.13;5074476;28;1910;-28
2023/10/13 14:53:10;;;;;;;;;;;;;;;27.62;33.21;101114.88;5074569;28;1019;-31
2023/10/13 14:55:39;;;;;;;;;;;;;;;27.79;32.83;101110.25;5074723;28;1121;-28
2023/10/13 14:58:06;;;;;;;;;;;;;;;27.91;32.93;101115.22;5075104;28;1099;-28
2023/10/13 15:00:32;;;;;;;;;;;;;;;27.81;33.27;101121.69;5061415;28;1082;-28
2023/10/13 15:03:01;;;;;;;;;;;;;;;27.57;33.54;101131.63;5055171;28;1112;-27
2023/10/13 15:05:29;;;;;;;;;;;;;;;27.67;33.40;101131.41;5066401;28;1149;-31
2023/10/13 15:07:55;;;;;;;;;;;;;;;27.47;34.62;101123.72;5073135;28;1012;-30
2023/10/13 15:10:21;;;;;;;;;;;;;;;27.48;34.04;101124.56;5075715;28;1945;-32
2023/10/13 15:12:46;;;;;;;;;;;;;;;27.59;33.84;101126.84;5065604;28;1091;-28
2023/10/13 15:15:19;;;;;;;;;;;;;;;27.61;34.07;101127.53;5075149;28;1079;-34
2023/10/13 15:17:45;;;;;;;;;;;;;;;27.45;34.98;101123.06;5075323;28;1087;-30
2023/10/13 15:20:15;;;;;;;;;;;;;;;27.45;34.95;101122.22;5059737;28;1050;-28
2023/10/13 15:22:44;;;;;;;;;;;;;;;27.42;35.00;101128.81;5059217;28;1293;-32
2023/10/13 15:25:28;;;;;;;;;;;;;;;27.34;34.85;101137.78;5063494;28;1110;-27
2023/10/13 15:28:04;;;;;;;;;;;;;;;27.38;35.05;101135.56;5073803;28;1094;-30
2023/10/13 15:30:48;;;;;;;;;;;;;;;27.30;35.55;101127.50;5078852;28;1973;-26
2023/10/13 15:33:15;;;;;;;;;;;;;;;27.18;35.59;101132.44;5059403;28;1491;-29
2023/10/13 15:35:42;;;;;;;;;;;;;;;27.32;35.70;101142.53;5067588;28;1143;-30
2023/10/13 15:38:08;;;;;;;;;;;;;;;27.13;36.22;101130.25;5066788;28;1153;-32
2023/10/13 15:40:39;;;;;;;;;;;;;;;26.81;36.85;101130.16;5069363;28;1023;-28
2023/10/13 15:43:05;;;;;;;;;;;;;;;27.06;36.21;101137.41;5067562;28;1027;-27
2023/10/13 15:45:38;;;;;;;;;;;;;;;27.26;35.77;101151.31;5044162;28;1470;-30
2023/10/13 15:48:04;;;;;;;;;;;;;;;26.98;36.14;101144.47;5078956;28;1073;-27
2023/10/13 15:50:39;;;;;;;;;;;;;;;27.19;36.10;101148.50;5097593;28;1985;-28
2023/10/13 15:53:04;;;;;;;;;;;;;;;27.12;35.94;101151.03;5071634;28;1159;-28
2023/10/13 15:55:30;;;;;;;;;;;;;;;27.06;35.70;101142.78;5098913;28;1067;-27
2023/10/13 15:57:56;;;;;;;;;;;;;;;27.45;35.34;101163.59;5073176;28;1123;-30
2023/10/13 16:00:25;;;;;;;;;;;;;;;27.45;35.18;101171.69;5075175;28;1050;-27
2023/10/13 16:02:54;;;;;;;;;;;;;;;27.31;35.31;101161.63;5076596;28;1130;-30
2023/10/13 16:05:22;;;;;;;;;;;;;;;27.07;36.10;101160.66;5078082;28;1055;-30
2023/10/13 16:07:50;;;;;;;;;;;;;;;27.00;35.97;101150.53;5064945;28;2140;-29
2023/10/13 16:10:16;;;;;;;;;;;;;;;26.95;36.19;101152.06;5052091;28;2022;-33
2023/10/13 16:12:44;;;;;;;;;;;;;;;26.94;36.40;101150.38;5066728;28;1942;-28
2023/10/13 16:15:13;;;;;;;;;;;;;;;27.01;36.44;101154.94;5063242;28;1824;-30
2023/10/13 16:17:39;;;;;;;;;;;;;;;27.24;35.62;101166.88;5082229;28;1916;-32
2023/10/13 16:20:15;;;;;;;;;;;;;;;26.83;36.33;101152.41;5062165;28;2299;-32
2023/10/13 16:22:44;;;;;;;;;;;;;;;27.02;36.07;101172.84;5077594;28;2083;-29
2023/10/13 16:25:13;;;;;;;;;;;;;;;27.15;35.66;101176.84;5071633;28;1028;-29